In Rescue
 
Open Full Screen Window  High Contrast Mode
September 22, 2020 12:36 AM EDT
Weather Information
Wind Direction
  ---
Wind Speed
  00 kt (0 mph)
Wind Gust
  00 kt (0 mph)
Altimeter
30.28 in
Visibility
10 SM
Temperature
08° C
46° F
Dewpoint
07° C
45° F
Humidity
93%
1hr Rain Fall
00.00 in.
24hr Rain Fall
00.00 in.
Sky Condition
Clear
VFR

METAR KRQB 220436Z AUTO 00000KT 10SM CLR 08/07 A3028 RMK AO2 T00810071

FAA Disclaimer: The data displayed is for advisory purposes only and is not to be used for flight planning or operations.